Rechercher aéroport 
image banner adimage banner adimage banner ad
image banner ad

KMHV - Mojave Air And Space Port

Situé à Mojave, United States

ICAO - MHV, IATA - MHV

Données fournies par Airmate  

Information générale

Coordonnées: N35°3'32" W118°9'2"
Élévation : 2801 feet MSL.
Variation magnétique : 14° East
Voir autres Aéroports à California

Données opérationnelles

Special qualification required
Heure actuelle UTC:
Heure actuelle locale:
Météo
METAR: KMHV 251440Z AUTO 00000KT 10SM CLR 28/03 A3000 RMK A01
Voir NOTAMs / SUP AIP / TFR affectant cet aéroport [VIEW]
Fréquences de communication: [VIEW]

Pistes:

Identifiant RWYQFULongueur (ft)Largeur (ft)SurfaceLDA (ft)
0452°474760ASPH
22232°474760ASPH
0890°7049100ASPH
26270°7049100ASPH
12135°12503200ASPH
30315°12503200ASPH

Coordonnées de l'aéroport

Adresse: Mojave United States

Autres services d'aviation

Écoles de pilotage

National Test Pilot School

National Test Pilot School
lesteringham@ntps.edu+1(661)824-2977

Vue satellite de KMHV